createdAt,value
2022-10-11T00:01:59.967Z,8.95
2022-10-11T00:04:26.519Z,9.01
2022-10-11T00:06:53.026Z,9.05
2022-10-11T00:09:19.557Z,9.06
2022-10-11T00:11:46.090Z,9.09
2022-10-11T00:14:12.649Z,9.11
2022-10-11T00:16:40.505Z,8.93
2022-10-11T00:19:07.047Z,9.01
2022-10-11T00:21:33.597Z,9.07
2022-10-11T00:24:00.113Z,9.07
2022-10-11T00:26:26.655Z,9.05
2022-10-11T00:28:53.256Z,9.11
2022-10-11T00:31:19.980Z,9.13
2022-10-11T00:33:47.912Z,9.12
2022-10-11T00:36:14.633Z,9.20
2022-10-11T00:38:41.551Z,9.21
2022-10-11T00:41:08.100Z,9.23
2022-10-11T00:43:34.768Z,9.25
2022-10-11T00:46:24.806Z,9.28
2022-10-11T00:48:58.389Z,9.34
2022-10-11T00:51:34.803Z,9.36
2022-10-11T00:54:02.475Z,9.35
2022-10-11T00:56:33.151Z,9.38
2022-10-11T00:59:02.454Z,9.38
2022-10-11T01:01:29.072Z,9.43
2022-10-11T01:03:57.350Z,9.49
2022-10-11T01:06:24.091Z,9.51
2022-10-11T01:08:51.977Z,9.60
2022-10-11T01:11:22.955Z,9.62
2022-10-11T01:14:07.587Z,9.65
2022-10-11T01:16:37.924Z,9.63
2022-10-11T01:19:21.724Z,9.68
2022-10-11T01:21:52.905Z,9.63
2022-10-11T01:24:55.208Z,9.65
2022-10-11T01:27:48.395Z,9.66
2022-10-11T01:30:24.233Z,9.73
2022-10-11T01:33:02.798Z,9.77
2022-10-11T01:35:38.259Z,9.77
2022-10-11T01:38:11.353Z,9.78
2022-10-11T01:40:42.916Z,9.81
2022-10-11T01:43:10.243Z,9.83
2022-10-11T01:45:38.423Z,9.82
2022-10-11T01:48:07.492Z,9.86
2022-10-11T01:50:39.436Z,9.89
2022-10-11T01:53:12.656Z,9.87
2022-10-11T01:55:47.200Z,9.90
2022-10-11T01:58:22.683Z,9.92
2022-10-11T02:00:58.006Z,9.93
2022-10-11T02:03:33.674Z,9.98
2022-10-11T02:06:08.784Z,9.95
2022-10-11T02:08:41.908Z,10.01
2022-10-11T02:11:16.089Z,10.04
2022-10-11T02:13:47.092Z,10.08
2022-10-11T02:16:20.586Z,10.13
2022-10-11T02:18:50.228Z,10.16
2022-10-11T02:21:20.651Z,10.17
2022-10-11T02:23:51.078Z,10.18
2022-10-11T02:26:21.725Z,10.21
2022-10-11T02:28:51.129Z,10.21
2022-10-11T02:31:20.472Z,10.09
2022-10-11T02:33:52.442Z,9.90
2022-10-11T02:36:22.524Z,9.74
2022-10-11T02:38:54.693Z,9.63
2022-10-11T02:41:25.522Z,9.69
2022-10-11T02:43:55.907Z,9.74
2022-10-11T02:46:25.041Z,9.71
2022-10-11T02:48:52.090Z,9.81
2022-10-11T02:51:18.640Z,9.89
2022-10-11T02:53:45.164Z,9.91
2022-10-11T02:56:11.658Z,9.93
2022-10-11T02:58:38.178Z,9.97
2022-10-11T03:01:04.816Z,10.00
2022-10-11T03:03:32.710Z,9.95
2022-10-11T03:06:00.083Z,9.96
2022-10-11T03:08:26.755Z,9.95
2022-10-11T03:10:53.340Z,9.86
2022-10-11T03:13:19.921Z,9.86
2022-10-11T03:15:49.366Z,9.86
2022-10-11T03:18:16.079Z,9.84
2022-10-11T03:20:44.174Z,9.85
2022-10-11T03:23:11.045Z,9.84
2022-10-11T03:25:37.625Z,9.84
2022-10-11T03:28:04.579Z,9.82
2022-10-11T03:30:31.147Z,9.85
2022-10-11T03:32:57.927Z,9.87
2022-10-11T03:35:24.466Z,9.97
2022-10-11T03:37:52.410Z,9.93
2022-10-11T03:40:18.980Z,9.94
2022-10-11T03:42:45.519Z,9.99
2022-10-11T03:45:12.087Z,9.99
2022-10-11T03:47:39.780Z,10.03
2022-10-11T03:50:07.855Z,10.06
2022-10-11T03:52:34.519Z,10.04
2022-10-11T03:55:02.498Z,10.04
2022-10-11T03:57:29.063Z,10.06
2022-10-11T03:59:55.614Z,10.05
2022-10-11T04:02:22.156Z,10.06
2022-10-11T04:04:48.765Z,10.04
2022-10-11T04:07:15.323Z,9.98
2022-10-11T04:09:41.908Z,9.96
2022-10-11T04:12:09.786Z,9.99
2022-10-11T04:14:36.335Z,9.93
2022-10-11T04:17:02.861Z,9.93
2022-10-11T04:19:29.411Z,9.91
2022-10-11T04:21:55.984Z,10.00
2022-10-11T04:24:22.572Z,9.99
2022-10-11T04:26:49.112Z,9.96
2022-10-11T04:29:17.039Z,9.98
2022-10-11T04:31:43.589Z,10.03
2022-10-11T04:34:10.139Z,10.07
2022-10-11T04:36:36.706Z,10.08
2022-10-11T04:39:03.348Z,10.06
2022-10-11T04:41:29.890Z,9.99
2022-10-11T04:43:56.624Z,10.03
2022-10-11T04:46:24.798Z,10.04
2022-10-11T04:48:51.574Z,10.05
2022-10-11T04:51:18.802Z,10.06
2022-10-11T04:53:45.333Z,10.09
2022-10-11T04:56:11.982Z,10.09
2022-10-11T04:58:39.043Z,10.08
2022-10-11T05:01:05.580Z,10.12
2022-10-11T05:03:33.815Z,10.11
2022-10-11T05:06:04.656Z,10.14
2022-10-11T05:08:32.503Z,10.14
2022-10-11T05:11:01.131Z,10.10
2022-10-11T05:13:28.800Z,10.14
2022-10-11T05:15:55.732Z,10.12
2022-10-11T05:18:22.856Z,10.10
2022-10-11T05:20:58.695Z,10.08
2022-10-11T05:23:25.228Z,10.11
2022-10-11T05:25:51.754Z,10.11
2022-10-11T05:28:18.329Z,10.18
2022-10-11T05:30:44.911Z,10.25
2022-10-11T05:33:11.693Z,10.29
2022-10-11T05:35:38.241Z,10.22
2022-10-11T05:38:06.124Z,10.18
2022-10-11T05:40:32.666Z,10.18
2022-10-11T05:42:59.256Z,10.22
2022-10-11T05:45:25.801Z,10.28
2022-10-11T05:47:52.347Z,10.30
2022-10-11T05:50:24.028Z,10.38
2022-10-11T05:52:50.974Z,10.40
2022-10-11T05:55:18.856Z,10.44
2022-10-11T05:57:45.414Z,10.49
2022-10-11T06:00:12.690Z,10.45
2022-10-11T06:02:39.314Z,10.50
2022-10-11T06:05:06.274Z,10.57
2022-10-11T06:07:35.187Z,10.63
2022-10-11T06:10:01.754Z,10.71
2022-10-11T06:12:30.323Z,10.68
2022-10-11T06:14:57.565Z,10.78
2022-10-11T06:17:24.147Z,10.88
2022-10-11T06:19:50.711Z,10.94
2022-10-11T06:22:17.399Z,10.94
2022-10-11T06:24:44.153Z,10.96
2022-10-11T06:27:10.695Z,11.05
2022-10-11T06:29:38.639Z,11.07
2022-10-11T06:32:05.504Z,11.19
2022-10-11T06:34:32.069Z,11.29
2022-10-11T06:36:58.613Z,11.29
2022-10-11T06:39:25.136Z,11.34
2022-10-11T06:41:51.655Z,11.30
2022-10-11T06:44:18.190Z,11.23
2022-10-11T06:46:46.060Z,11.22
2022-10-11T06:49:12.682Z,11.28
2022-10-11T06:51:39.212Z,11.33
2022-10-11T06:54:05.898Z,11.37
2022-10-11T06:56:32.430Z,11.22
2022-10-11T06:58:59.836Z,11.27
2022-10-11T07:01:27.213Z,11.19
2022-10-11T07:03:57.499Z,11.16
2022-10-11T07:06:26.386Z,11.15
2022-10-11T07:08:53.356Z,11.24
2022-10-11T07:11:21.990Z,11.27
2022-10-11T07:13:50.045Z,11.35
2022-10-11T07:16:16.632Z,11.42
2022-10-11T07:18:43.266Z,11.47
2022-10-11T07:21:15.035Z,11.51
2022-10-11T07:23:42.565Z,11.54
2022-10-11T07:26:11.066Z,11.60
2022-10-11T07:28:39.040Z,11.70
2022-10-11T07:31:06.996Z,11.72
2022-10-11T07:33:33.998Z,11.82
2022-10-11T07:36:00.597Z,11.87
2022-10-11T07:38:28.517Z,11.88
2022-10-11T07:40:55.169Z,11.87
2022-10-11T07:43:21.680Z,11.80
2022-10-11T07:45:51.297Z,11.90
2022-10-11T07:48:17.803Z,11.93
2022-10-11T07:50:44.361Z,11.95
2022-10-11T07:53:10.912Z,11.91
2022-10-11T07:55:39.132Z,11.89
2022-10-11T07:58:06.474Z,12.01
2022-10-11T08:00:33.414Z,12.06
2022-10-11T08:03:01.967Z,12.14
2022-10-11T08:05:29.058Z,12.18
2022-10-11T08:07:55.615Z,12.29
2022-10-11T08:10:22.267Z,12.34
2022-10-11T08:12:50.219Z,12.43
2022-10-11T08:15:17.066Z,12.45
2022-10-11T08:17:43.661Z,12.30
2022-10-11T08:20:10.589Z,12.26
2022-10-11T08:22:37.149Z,12.42
2022-10-11T08:25:04.303Z,12.57
2022-10-11T08:27:30.830Z,12.63
2022-10-11T08:29:58.698Z,12.78
2022-10-11T08:32:25.250Z,12.89
2022-10-11T08:34:51.796Z,12.98
2022-10-11T08:37:18.320Z,13.06
2022-10-11T08:39:44.874Z,13.18
2022-10-11T08:42:15.134Z,13.35
2022-10-11T08:45:09.515Z,13.53
2022-10-11T08:47:37.461Z,13.63
2022-10-11T08:50:05.015Z,13.53
2022-10-11T08:52:44.706Z,13.66
2022-10-11T08:55:19.114Z,13.78
2022-10-11T08:57:51.915Z,13.67
2022-10-11T09:00:19.912Z,13.72
2022-10-11T09:03:08.023Z,13.76
2022-10-11T09:05:39.442Z,13.82
2022-10-11T09:08:11.741Z,13.87
2022-10-11T09:10:53.306Z,13.97
2022-10-11T09:13:30.762Z,14.10
2022-10-11T09:16:09.323Z,14.04
2022-10-11T09:18:52.922Z,14.00
2022-10-11T09:21:32.283Z,14.15
2022-10-11T09:24:13.095Z,14.03
2022-10-11T09:26:47.659Z,14.25
2022-10-11T09:29:21.548Z,14.37
2022-10-11T09:31:52.115Z,14.52
2022-10-11T09:34:23.485Z,14.50
2022-10-11T09:36:54.951Z,14.60
2022-10-11T09:39:29.047Z,14.72
2022-10-11T09:42:00.265Z,14.97
2022-10-11T09:44:29.223Z,15.05
2022-10-11T09:46:57.258Z,15.01
2022-10-11T09:49:31.804Z,15.07
2022-10-11T09:52:01.870Z,14.95
2022-10-11T09:54:39.919Z,14.55
2022-10-11T09:57:06.679Z,14.71
2022-10-11T09:59:34.682Z,14.74
2022-10-11T10:02:21.656Z,14.65
2022-10-11T10:05:01.867Z,14.49
2022-10-11T10:07:29.917Z,14.70
2022-10-11T10:09:56.728Z,15.01
2022-10-11T10:12:26.993Z,15.38
2022-10-11T10:15:04.979Z,15.26
2022-10-11T10:17:32.219Z,15.28
2022-10-11T10:20:00.334Z,15.41
2022-10-11T10:22:29.381Z,15.69
2022-10-11T10:24:58.092Z,16.06
2022-10-11T10:27:26.261Z,16.36
2022-10-11T10:30:12.975Z,16.56
2022-10-11T10:32:48.673Z,16.66
2022-10-11T10:35:26.859Z,16.92
2022-10-11T10:38:03.719Z,16.93
2022-10-11T10:40:39.442Z,17.18
2022-10-11T10:43:06.182Z,17.15
2022-10-11T10:45:42.750Z,16.30
2022-10-11T10:48:19.843Z,16.06
2022-10-11T10:50:55.726Z,16.54
2022-10-11T10:53:29.434Z,16.54
2022-10-11T10:56:05.850Z,16.37
2022-10-11T10:58:55.440Z,15.98
2022-10-11T11:01:26.411Z,16.01
2022-10-11T11:04:00.078Z,16.10
2022-10-11T11:06:37.007Z,16.12
2022-10-11T11:09:20.671Z,16.17
2022-10-11T11:11:59.339Z,16.45
2022-10-11T11:14:39.958Z,16.11
2022-10-11T11:17:18.766Z,16.29
2022-10-11T11:19:59.712Z,16.51
2022-10-11T11:22:37.567Z,16.48
2022-10-11T11:25:17.478Z,16.40
2022-10-11T11:27:55.524Z,16.59
2022-10-11T11:30:24.523Z,16.73
2022-10-11T11:33:03.926Z,16.43
2022-10-11T11:35:37.178Z,16.66
2022-10-11T11:38:13.989Z,16.45
2022-10-11T11:40:43.694Z,16.05
2022-10-11T11:43:18.606Z,15.84
2022-10-11T11:45:48.431Z,15.64
2022-10-11T11:48:19.027Z,15.87
2022-10-11T11:50:51.251Z,16.20
2022-10-11T11:53:23.434Z,16.33
2022-10-11T11:55:57.183Z,16.40
2022-10-11T11:58:34.471Z,16.39
2022-10-11T12:01:07.837Z,16.35
2022-10-11T12:03:41.787Z,16.03
2022-10-11T12:06:29.117Z,15.82
2022-10-11T12:09:02.218Z,15.84
2022-10-11T12:11:38.453Z,15.96
2022-10-11T12:14:16.982Z,16.02
2022-10-11T12:17:12.761Z,15.86
2022-10-11T12:19:41.852Z,15.82
2022-10-11T12:22:35.495Z,15.89
2022-10-11T12:25:32.690Z,15.73
2022-10-11T12:28:02.235Z,15.79
2022-10-11T12:30:51.773Z,15.92
2022-10-11T12:33:21.277Z,15.97
2022-10-11T12:35:57.063Z,16.11
2022-10-11T12:38:25.343Z,16.10
2022-10-11T12:40:54.526Z,16.21
2022-10-11T12:43:29.014Z,16.32
2022-10-11T12:45:55.624Z,16.16
2022-10-11T12:48:47.377Z,16.16
2022-10-11T12:51:29.379Z,16.15
2022-10-11T12:54:38.249Z,16.13
2022-10-11T12:57:33.574Z,16.30
2022-10-11T13:00:17.020Z,16.47
2022-10-11T13:02:44.357Z,16.52
2022-10-11T13:05:20.247Z,16.61
2022-10-11T13:07:47.120Z,16.67
2022-10-11T13:10:15.242Z,16.61
2022-10-11T13:12:46.759Z,16.58
2022-10-11T13:15:16.430Z,16.55
2022-10-11T13:17:43.334Z,16.47
2022-10-11T13:20:17.573Z,16.23
2022-10-11T13:22:45.998Z,16.33
2022-10-11T13:25:16.932Z,16.54
2022-10-11T13:27:45.470Z,16.55
2022-10-11T13:30:18.997Z,16.62
2022-10-11T13:32:46.020Z,16.41
2022-10-11T13:35:21.001Z,16.39
2022-10-11T13:37:50.560Z,16.49
2022-10-11T13:40:19.504Z,16.68
2022-10-11T13:42:49.176Z,16.71
2022-10-11T13:45:18.895Z,16.48
2022-10-11T13:47:46.907Z,16.65
2022-10-11T13:50:21.911Z,16.82
2022-10-11T13:52:53.987Z,16.82
2022-10-11T13:55:26.533Z,16.23
2022-10-11T13:57:55.119Z,16.39
2022-10-11T14:00:29.483Z,16.50
2022-10-11T14:03:00.106Z,16.44
2022-10-11T14:05:31.379Z,16.33
2022-10-11T14:08:00.673Z,16.18
2022-10-11T14:10:27.689Z,16.16
2022-10-11T14:13:02.174Z,15.96
2022-10-11T14:15:30.766Z,16.15
2022-10-11T14:17:58.443Z,16.30
2022-10-11T14:20:33.433Z,16.35
2022-10-11T14:23:00.043Z,15.95
2022-10-11T14:25:26.660Z,15.66
2022-10-11T14:27:53.211Z,16.02
2022-10-11T14:30:26.418Z,16.25
2022-10-11T14:32:55.338Z,16.44
2022-10-11T14:35:24.294Z,16.58
2022-10-11T14:37:51.619Z,16.73
2022-10-11T14:40:20.288Z,16.77
2022-10-11T14:42:47.249Z,16.73
2022-10-11T14:45:13.870Z,16.72
2022-10-11T14:47:43.132Z,16.50
2022-10-11T14:50:30.085Z,16.59
2022-10-11T14:52:56.927Z,16.64
2022-10-11T14:55:23.937Z,16.64
2022-10-11T14:57:50.514Z,16.26
2022-10-11T15:00:20.755Z,16.06
2022-10-11T15:02:48.704Z,16.00
2022-10-11T15:05:15.264Z,15.76
2022-10-11T15:07:41.824Z,15.85
2022-10-11T15:10:18.745Z,15.85
2022-10-11T15:12:45.492Z,15.90
2022-10-11T15:15:16.125Z,15.92
2022-10-11T15:17:43.392Z,15.73
2022-10-11T15:20:20.389Z,15.48
2022-10-11T15:22:47.067Z,15.50
2022-10-11T15:25:13.902Z,15.41
2022-10-11T15:27:40.461Z,15.32
2022-10-11T15:30:13.335Z,15.28
2022-10-11T15:32:39.910Z,15.34
2022-10-11T15:35:06.950Z,15.28
2022-10-11T15:37:37.370Z,15.18
2022-10-11T15:40:15.670Z,15.27
2022-10-11T15:42:42.581Z,15.14
2022-10-11T15:45:09.695Z,15.16
2022-10-11T15:47:36.241Z,15.02
2022-10-11T15:50:03.345Z,14.89
2022-10-11T15:52:29.890Z,14.70
2022-10-11T15:54:57.755Z,14.60
2022-10-11T15:57:24.311Z,14.65
2022-10-11T15:59:50.880Z,14.62
2022-10-11T16:02:17.422Z,14.62
2022-10-11T16:04:43.939Z,14.56
2022-10-11T16:07:10.473Z,14.43
2022-10-11T16:09:37.004Z,14.29
2022-10-11T16:12:05.279Z,14.34
2022-10-11T16:14:31.849Z,14.23
2022-10-11T16:17:01.043Z,14.17
2022-10-11T16:19:27.585Z,14.12
2022-10-11T16:21:54.127Z,14.10
2022-10-11T16:24:20.695Z,13.97
2022-10-11T16:26:47.414Z,13.85
2022-10-11T16:29:15.411Z,13.86
2022-10-11T16:31:41.918Z,13.78
2022-10-11T16:34:08.458Z,13.78
2022-10-11T16:36:35.006Z,13.69
2022-10-11T16:39:04.531Z,13.62
2022-10-11T16:41:31.086Z,13.58
2022-10-11T16:43:57.663Z,13.52
2022-10-11T16:46:25.542Z,13.43
2022-10-11T16:48:54.899Z,13.30
2022-10-11T16:51:21.603Z,13.08
2022-10-11T16:53:48.161Z,13.16
2022-10-11T16:56:14.686Z,12.99
2022-10-11T16:58:41.393Z,12.83
2022-10-11T17:01:09.991Z,12.72
2022-10-11T17:03:38.724Z,12.67
2022-10-11T17:06:06.362Z,12.53
2022-10-11T17:08:33.247Z,12.43
2022-10-11T17:10:59.812Z,12.26
2022-10-11T17:13:26.765Z,12.16
2022-10-11T17:15:53.282Z,12.14
2022-10-11T17:18:19.846Z,12.05
2022-10-11T17:20:47.725Z,11.84
2022-10-11T17:23:14.371Z,11.73
2022-10-11T17:25:41.993Z,11.63
2022-10-11T17:28:08.663Z,11.70
2022-10-11T17:30:35.398Z,11.55
2022-10-11T17:33:01.938Z,11.42
2022-10-11T17:35:31.139Z,11.35
2022-10-11T17:38:02.440Z,11.30
2022-10-11T17:40:32.423Z,11.31
2022-10-11T17:42:58.973Z,11.37
2022-10-11T17:45:25.601Z,11.30
2022-10-11T17:47:52.120Z,11.16
2022-10-11T17:50:18.668Z,11.15
2022-10-11T17:52:45.275Z,11.12
2022-10-11T17:55:13.223Z,11.04
2022-10-11T17:57:39.752Z,10.94
2022-10-11T18:00:07.501Z,10.98
2022-10-11T18:02:34.049Z,10.97
2022-10-11T18:05:00.570Z,10.95
2022-10-11T18:07:27.085Z,10.94
2022-10-11T18:09:53.631Z,10.92
2022-10-11T18:12:21.537Z,10.97
2022-10-11T18:14:48.071Z,10.93
2022-10-11T18:17:14.697Z,10.92
2022-10-11T18:19:41.253Z,10.82
2022-10-11T18:22:07.787Z,10.71
2022-10-11T18:24:34.715Z,10.71
2022-10-11T18:27:01.311Z,10.56
2022-10-11T18:29:29.192Z,10.46
2022-10-11T18:31:55.733Z,10.49
2022-10-11T18:34:22.278Z,10.41
2022-10-11T18:36:48.822Z,10.31
2022-10-11T18:39:15.412Z,10.32
2022-10-11T18:41:42.982Z,10.29
2022-10-11T18:44:13.408Z,10.19
2022-10-11T18:46:41.487Z,10.16
2022-10-11T18:49:08.237Z,10.12
2022-10-11T18:51:36.615Z,10.10
2022-10-11T18:54:04.500Z,9.93
2022-10-11T18:56:32.868Z,9.89
2022-10-11T18:58:59.528Z,9.94
2022-10-11T19:01:28.522Z,9.94
2022-10-11T19:03:58.592Z,10.03
2022-10-11T19:06:28.453Z,9.90
2022-10-11T19:08:59.027Z,9.95
2022-10-11T19:11:25.586Z,9.97
2022-10-11T19:13:55.595Z,9.82
2022-10-11T19:16:22.549Z,9.78
2022-10-11T19:18:49.775Z,9.74
2022-10-11T19:21:18.281Z,9.72
2022-10-11T19:23:46.633Z,9.69
2022-10-11T19:26:15.285Z,9.72
2022-10-11T19:28:42.415Z,9.68
2022-10-11T19:31:10.868Z,9.66
2022-10-11T19:33:37.634Z,9.52
2022-10-11T19:36:05.962Z,9.53
2022-10-11T19:38:35.438Z,9.39
2022-10-11T19:41:02.761Z,9.40
2022-10-11T19:43:29.432Z,9.28
2022-10-11T19:45:59.842Z,9.39
2022-10-11T19:48:26.453Z,9.30
2022-10-11T19:50:53.022Z,9.17
2022-10-11T19:53:19.578Z,9.23
2022-10-11T19:55:47.507Z,9.09
2022-10-11T19:58:14.062Z,9.20
2022-10-11T20:00:40.621Z,9.23
2022-10-11T20:03:07.197Z,9.27
2022-10-11T20:05:36.571Z,9.22
2022-10-11T20:08:03.463Z,9.08
2022-10-11T20:10:30.012Z,9.18
2022-10-11T20:12:58.028Z,9.18
2022-10-11T20:15:24.723Z,9.20
2022-10-11T20:17:51.289Z,9.17
2022-10-11T20:20:18.774Z,9.23
2022-10-11T20:22:45.351Z,9.18
2022-10-11T20:25:12.028Z,9.07
2022-10-11T20:27:39.234Z,9.01
2022-10-11T20:30:07.955Z,9.08
2022-10-11T20:32:34.533Z,9.19
2022-10-11T20:35:01.097Z,9.12
2022-10-11T20:37:27.624Z,9.03
2022-10-11T20:39:54.179Z,8.85
2022-10-11T20:42:20.764Z,8.88
2022-10-11T20:44:47.381Z,8.94
2022-10-11T20:47:15.508Z,8.97
2022-10-11T20:49:42.037Z,9.13
2022-10-11T20:52:08.598Z,9.14
2022-10-11T20:54:35.174Z,9.14
2022-10-11T20:57:01.703Z,9.12
2022-10-11T20:59:28.262Z,9.07
2022-10-11T21:01:54.779Z,9.14
2022-10-11T21:04:22.718Z,9.21
2022-10-11T21:06:49.502Z,9.22
2022-10-11T21:09:16.841Z,9.26
2022-10-11T21:11:44.331Z,9.08
2022-10-11T21:14:11.043Z,9.06
2022-10-11T21:16:37.618Z,9.14
2022-10-11T21:19:04.291Z,9.21
2022-10-11T21:21:32.201Z,9.22
2022-10-11T21:24:00.436Z,9.20
2022-10-11T21:26:27.508Z,9.23
2022-10-11T21:28:54.289Z,9.27
2022-10-11T21:31:21.926Z,9.31
2022-10-11T21:33:49.036Z,9.26
2022-10-11T21:36:17.407Z,9.19
2022-10-11T21:38:46.007Z,9.29
2022-10-11T21:41:14.326Z,9.28
2022-10-11T21:43:41.359Z,9.23
2022-10-11T21:46:09.652Z,9.16
2022-10-11T21:48:36.419Z,9.12
2022-10-11T21:51:03.108Z,9.06
2022-10-11T21:53:29.844Z,8.90
2022-10-11T21:55:58.276Z,8.77
2022-10-11T21:58:24.927Z,8.62
2022-10-11T22:00:51.488Z,8.70
2022-10-11T22:03:18.050Z,8.86
2022-10-11T22:05:45.384Z,8.89
2022-10-11T22:08:12.198Z,8.97
2022-10-11T22:10:38.777Z,8.98
2022-10-11T22:13:06.926Z,9.00
2022-10-11T22:15:33.703Z,9.07
2022-10-11T22:18:00.303Z,9.03
2022-10-11T22:20:27.269Z,9.10
2022-10-11T22:22:53.815Z,9.09
2022-10-11T22:25:20.777Z,9.23
2022-10-11T22:27:47.351Z,9.22
2022-10-11T22:30:15.365Z,9.20
2022-10-11T22:32:41.906Z,9.26
2022-10-11T22:35:08.611Z,9.35
2022-10-11T22:37:35.276Z,9.38
2022-10-11T22:40:02.189Z,9.47
2022-10-11T22:42:29.011Z,9.49
2022-10-11T22:44:55.754Z,9.48
2022-10-11T22:47:23.747Z,9.49
2022-10-11T22:49:50.308Z,9.49
2022-10-11T22:52:16.879Z,9.52
2022-10-11T22:54:43.478Z,9.41
2022-10-11T22:57:10.023Z,9.40
2022-10-11T22:59:36.591Z,9.34
2022-10-11T23:02:03.140Z,9.33
2022-10-11T23:04:31.061Z,9.33
2022-10-11T23:07:01.301Z,9.30
2022-10-11T23:09:31.283Z,9.28
2022-10-11T23:11:57.977Z,9.24
2022-10-11T23:14:24.574Z,9.30
2022-10-11T23:16:51.542Z,9.23
2022-10-11T23:19:18.151Z,9.27
2022-10-11T23:21:46.567Z,9.42
2022-10-11T23:24:13.335Z,9.42
2022-10-11T23:26:39.910Z,9.41
2022-10-11T23:29:06.475Z,9.39
2022-10-11T23:31:33.015Z,9.44
2022-10-11T23:33:59.564Z,9.38
2022-10-11T23:36:26.266Z,9.34
2022-10-11T23:38:56.075Z,9.29
2022-10-11T23:41:24.140Z,9.15
2022-10-11T23:43:50.775Z,9.12
2022-10-11T23:46:17.482Z,9.17
2022-10-11T23:48:44.038Z,9.13
2022-10-11T23:51:10.803Z,9.08
2022-10-11T23:53:37.630Z,9.15
2022-10-11T23:56:06.416Z,9.27
2022-10-11T23:58:33.102Z,9.32
